createdAt,value
2018-04-24T00:00:46.367Z,15.20
2018-04-24T00:03:13.862Z,15.20
2018-04-24T00:05:41.328Z,15.20
2018-04-24T00:08:08.859Z,15.20
2018-04-24T00:10:36.357Z,15.10
2018-04-24T00:13:04.618Z,15.20
2018-04-24T00:15:32.115Z,15.10
2018-04-24T00:17:59.595Z,15.10
2018-04-24T00:20:27.057Z,14.90
2018-04-24T00:22:54.551Z,14.90
2018-04-24T00:25:22.049Z,14.90
2018-04-24T00:27:49.559Z,14.90
2018-04-24T00:30:17.046Z,14.90
2018-04-24T00:32:45.300Z,14.80
2018-04-24T00:35:12.770Z,14.80
2018-04-24T00:37:41.024Z,14.80
2018-04-24T00:40:08.488Z,14.80
2018-04-24T00:42:35.992Z,14.80
2018-04-24T00:45:03.462Z,14.80
2018-04-24T00:47:30.953Z,14.70
2018-04-24T00:49:58.480Z,14.70
2018-04-24T00:52:25.981Z,14.60
2018-04-24T00:54:53.444Z,14.70
2018-04-24T00:57:21.684Z,14.70
2018-04-24T00:59:49.214Z,15.90
2018-04-24T01:02:16.679Z,14.50
2018-04-24T01:04:44.192Z,14.60
2018-04-24T01:07:11.676Z,14.50
2018-04-24T01:09:39.170Z,14.50
2018-04-24T01:12:06.620Z,14.50
2018-04-24T01:14:34.150Z,14.40
2018-04-24T01:17:01.632Z,14.30
2018-04-24T01:19:29.140Z,14.30
2018-04-24T01:21:56.606Z,14.30
2018-04-24T01:24:24.859Z,14.20
2018-04-24T01:26:52.324Z,14.20
2018-04-24T01:29:19.827Z,14.20
2018-04-24T01:31:47.329Z,14.10
2018-04-24T01:34:14.822Z,14.10
2018-04-24T01:36:43.065Z,14.10
2018-04-24T01:39:10.556Z,14.10
2018-04-24T01:41:38.805Z,13.90
2018-04-24T01:44:07.065Z,13.80
2018-04-24T01:46:34.523Z,13.80
2018-04-24T01:49:02.024Z,13.80
2018-04-24T01:51:29.487Z,12.40
2018-04-24T01:53:56.948Z,13.70
2018-04-24T01:56:24.438Z,13.50
2018-04-24T01:58:51.935Z,13.50
2018-04-24T02:01:20.179Z,13.40
2018-04-24T02:03:47.655Z,13.30
2018-04-24T02:06:15.135Z,13.40
2018-04-24T02:08:43.364Z,13.40
2018-04-24T02:11:10.852Z,13.30
2018-04-24T02:13:39.091Z,13.30
2018-04-24T02:16:06.591Z,13.30
2018-04-24T02:18:34.817Z,13.40
2018-04-24T02:21:02.294Z,13.40
2018-04-24T02:26:06.452Z,13.40
2018-04-24T02:28:34.690Z,13.50
2018-04-24T02:31:02.187Z,13.40
2018-04-24T02:33:30.424Z,13.40
2018-04-24T02:35:57.933Z,13.40
2018-04-24T02:38:26.172Z,13.50
2018-04-24T02:40:54.444Z,13.40
2018-04-24T02:43:21.904Z,13.40
2018-04-24T02:45:50.164Z,13.30
2018-04-24T02:48:17.878Z,13.20
2018-04-24T02:50:45.365Z,13.30
2018-04-24T02:53:12.859Z,13.30
2018-04-24T02:55:41.112Z,12.10
2018-04-24T02:58:08.596Z,13.20
2018-04-24T03:00:36.064Z,13.10
2018-04-24T03:03:04.333Z,13.00
2018-04-24T03:05:32.572Z,13.00
2018-04-24T03:08:00.098Z,12.90
2018-04-24T03:10:27.577Z,12.90
2018-04-24T03:12:55.060Z,12.90
2018-04-24T03:15:22.544Z,12.90
2018-04-24T03:17:50.792Z,12.80
2018-04-24T03:20:18.259Z,12.80
2018-04-24T03:22:45.742Z,12.80
2018-04-24T03:25:13.967Z,12.60
2018-04-24T03:27:41.466Z,12.60
2018-04-24T03:30:09.709Z,12.50
2018-04-24T03:32:37.205Z,12.50
2018-04-24T03:35:05.442Z,11.80
2018-04-24T03:37:32.937Z,12.30
2018-04-24T03:40:01.177Z,12.30
2018-04-24T03:42:28.657Z,12.30
2018-04-24T03:44:57.630Z,12.30
2018-04-24T03:47:25.108Z,12.30
2018-04-24T03:49:53.350Z,12.20
2018-04-24T03:54:45.503Z,12.20
2018-04-24T03:57:13.050Z,12.30
2018-04-24T03:59:41.267Z,12.30
2018-04-24T04:02:09.526Z,12.30
2018-04-24T04:04:37.004Z,12.30
2018-04-24T04:07:05.277Z,12.30
2018-04-24T04:09:33.511Z,12.30
2018-04-24T04:12:01.014Z,12.30
2018-04-24T04:14:29.263Z,12.20
2018-04-24T04:16:56.773Z,12.20
2018-04-24T04:19:36.247Z,12.30
2018-04-24T04:22:15.658Z,12.20
2018-04-24T04:24:45.092Z,12.20
2018-04-24T04:27:12.669Z,12.30
2018-04-24T04:29:41.839Z,12.20
2018-04-24T04:32:09.617Z,12.20
2018-04-24T04:34:37.090Z,12.30
2018-04-24T04:37:04.577Z,12.40
2018-04-24T04:39:32.803Z,12.40
2018-04-24T04:42:00.299Z,12.40
2018-04-24T04:44:28.544Z,12.40
2018-04-24T04:46:56.029Z,12.40
2018-04-24T04:49:24.273Z,12.40
2018-04-24T04:51:51.764Z,12.40
2018-04-24T04:54:19.994Z,12.20
2018-04-24T04:56:47.513Z,12.20
2018-04-24T04:59:15.026Z,12.10
2018-04-24T05:01:42.540Z,12.20
2018-04-24T05:04:10.019Z,12.10
2018-04-24T05:06:37.499Z,12.10
2018-04-24T05:09:05.924Z,12.20
2018-04-24T05:11:33.413Z,12.00
2018-04-24T05:14:00.937Z,12.00
2018-04-24T05:16:28.436Z,11.90
2018-04-24T05:18:55.948Z,12.00
2018-04-24T05:21:24.188Z,12.00
2018-04-24T05:23:52.452Z,12.10
2018-04-24T05:26:19.935Z,12.00
2018-04-24T05:28:47.416Z,12.10
2018-04-24T05:31:16.150Z,12.20
2018-04-24T05:33:43.686Z,12.20
2018-04-24T05:36:11.199Z,12.20
2018-04-24T05:38:39.498Z,12.20
2018-04-24T05:41:07.743Z,12.20
2018-04-24T05:43:36.580Z,12.20
2018-04-24T05:46:04.074Z,12.20
2018-04-24T05:48:31.567Z,12.30
2018-04-24T05:51:00.533Z,12.40
2018-04-24T05:53:28.809Z,12.50
2018-04-24T05:55:56.276Z,12.50
2018-04-24T05:58:23.764Z,12.50
2018-04-24T06:00:51.248Z,12.60
2018-04-24T06:03:18.733Z,12.70
2018-04-24T06:05:46.213Z,12.70
2018-04-24T06:08:13.738Z,12.90
2018-04-24T06:10:41.987Z,12.90
2018-04-24T06:13:09.477Z,12.90
2018-04-24T06:15:37.411Z,13.00
2018-04-24T06:18:04.909Z,13.10
2018-04-24T06:20:33.136Z,13.30
2018-04-24T06:23:00.639Z,13.20
2018-04-24T06:25:28.105Z,13.40
2018-04-24T06:27:55.625Z,13.40
2018-04-24T06:30:23.872Z,13.40
2018-04-24T06:32:52.144Z,13.30
2018-04-24T06:35:20.401Z,13.40
2018-04-24T06:37:47.923Z,13.40
2018-04-24T06:40:16.391Z,13.50
2018-04-24T06:42:43.885Z,13.60
2018-04-24T06:45:11.367Z,13.60
2018-04-24T06:47:39.716Z,13.80
2018-04-24T06:50:07.863Z,13.90
2018-04-24T06:52:35.367Z,13.90
2018-04-24T06:55:03.659Z,14.10
2018-04-24T06:57:31.097Z,14.10
2018-04-24T06:59:58.577Z,14.20
2018-04-24T07:02:26.827Z,14.40
2018-04-24T07:04:54.299Z,14.40
2018-04-24T07:07:22.551Z,14.50
2018-04-24T07:09:50.043Z,14.40
2018-04-24T07:12:17.527Z,14.60
2018-04-24T07:14:44.989Z,14.60
2018-04-24T07:17:13.248Z,14.70
2018-04-24T07:19:40.735Z,14.70
2018-04-24T07:22:08.288Z,14.90
2018-04-24T07:24:36.500Z,14.90
2018-04-24T07:27:03.971Z,14.90
2018-04-24T07:29:32.290Z,15.20
2018-04-24T07:31:59.768Z,15.10
2018-04-24T07:34:27.270Z,15.30
2018-04-24T07:36:55.500Z,15.40
2018-04-24T07:39:22.999Z,15.50
2018-04-24T07:41:52.158Z,15.50
2018-04-24T07:44:19.639Z,15.50
2018-04-24T07:46:47.883Z,15.60
2018-04-24T07:49:15.400Z,15.60
2018-04-24T07:51:42.865Z,15.70
2018-04-24T07:54:10.352Z,15.60
2018-04-24T07:56:37.871Z,15.80
2018-04-24T07:59:05.364Z,15.80
2018-04-24T08:01:32.844Z,15.80
2018-04-24T08:04:00.320Z,15.80
2018-04-24T08:06:28.568Z,15.90
2018-04-24T08:08:56.056Z,15.90
2018-04-24T08:11:24.309Z,16.10
2018-04-24T08:13:51.786Z,16.10
2018-04-24T08:16:20.031Z,16.20
2018-04-24T08:18:47.519Z,16.20
2018-04-24T08:21:15.751Z,16.20
2018-04-24T08:23:43.368Z,16.10
2018-04-24T08:26:10.934Z,16.30
2018-04-24T08:28:38.432Z,16.60
2018-04-24T08:31:05.901Z,16.60
2018-04-24T08:33:33.404Z,16.60
2018-04-24T08:36:00.861Z,16.60
2018-04-24T08:38:28.388Z,16.50
2018-04-24T08:40:55.879Z,16.50
2018-04-24T08:43:23.386Z,16.30
2018-04-24T08:45:50.844Z,16.30
2018-04-24T08:48:18.340Z,16.30
2018-04-24T08:50:46.579Z,16.50
2018-04-24T08:53:15.567Z,16.50
2018-04-24T08:55:43.060Z,16.50
2018-04-24T08:58:11.343Z,16.60
2018-04-24T09:00:39.575Z,16.80
2018-04-24T09:03:07.092Z,16.80
2018-04-24T09:05:34.661Z,16.80
2018-04-24T09:08:02.202Z,17.00
2018-04-24T09:10:29.765Z,17.00
2018-04-24T09:12:57.252Z,17.10
2018-04-24T09:15:24.714Z,16.90
2018-04-24T09:17:52.220Z,17.10
2018-04-24T09:20:20.490Z,17.10
2018-04-24T09:22:48.773Z,17.20
2018-04-24T09:25:17.081Z,17.40
2018-04-24T09:27:44.641Z,17.40
2018-04-24T09:30:12.139Z,17.30
2018-04-24T09:32:40.383Z,17.20
2018-04-24T09:35:07.934Z,17.10
2018-04-24T09:37:35.461Z,17.30
2018-04-24T09:40:02.964Z,17.50
2018-04-24T09:42:30.425Z,17.40
2018-04-24T09:44:57.906Z,17.50
2018-04-24T09:47:26.872Z,17.80
2018-04-24T09:49:54.358Z,17.80
2018-04-24T09:52:23.339Z,17.70
2018-04-24T09:54:50.828Z,17.70
2018-04-24T09:57:19.069Z,18.10
2018-04-24T09:59:46.587Z,18.10
2018-04-24T10:02:14.134Z,18.00
2018-04-24T10:04:41.703Z,18.10
2018-04-24T10:07:09.171Z,18.10
2018-04-24T10:09:36.649Z,18.10
2018-04-24T10:12:04.118Z,18.10
2018-04-24T10:14:31.704Z,18.10
2018-04-24T10:16:59.952Z,18.30
2018-04-24T10:19:27.430Z,18.30
2018-04-24T10:21:54.891Z,18.50
2018-04-24T10:24:23.171Z,18.50
2018-04-24T10:26:51.413Z,18.60
2018-04-24T10:29:18.909Z,18.60
2018-04-24T10:31:47.141Z,18.70
2018-04-24T10:34:14.621Z,18.70
2018-04-24T10:36:42.091Z,18.80
2018-04-24T10:39:10.368Z,18.70
2018-04-24T10:41:38.592Z,18.60
2018-04-24T10:44:06.083Z,18.60
2018-04-24T10:46:33.542Z,18.70
2018-04-24T10:49:01.121Z,18.80
2018-04-24T10:51:29.425Z,18.90
2018-04-24T10:53:56.881Z,18.90
2018-04-24T10:56:24.395Z,19.00
2018-04-24T10:58:52.675Z,19.30
2018-04-24T11:01:20.160Z,19.30
2018-04-24T11:03:47.651Z,19.20
2018-04-24T11:06:15.214Z,19.20
2018-04-24T11:08:42.701Z,19.30
2018-04-24T11:11:10.181Z,19.30
2018-04-24T11:13:37.682Z,19.30
2018-04-24T11:16:05.160Z,19.30
2018-04-24T11:18:32.635Z,19.30
2018-04-24T11:21:00.894Z,19.30
2018-04-24T11:23:28.397Z,19.30
2018-04-24T11:25:55.878Z,19.30
2018-04-24T11:28:23.382Z,19.40
2018-04-24T11:30:51.627Z,19.60
2018-04-24T11:33:19.104Z,19.60
2018-04-24T11:35:46.692Z,19.70
2018-04-24T11:38:14.958Z,19.70
2018-04-24T11:40:42.440Z,19.70
2018-04-24T11:43:09.901Z,19.70
2018-04-24T11:45:37.375Z,19.70
2018-04-24T11:48:04.860Z,19.90
2018-04-24T11:50:32.335Z,20.10
2018-04-24T11:53:01.317Z,20.10
2018-04-24T11:55:28.818Z,20.10
2018-04-24T11:57:57.063Z,20.00
2018-04-24T12:00:24.554Z,20.00
2018-04-24T12:02:52.112Z,20.20
2018-04-24T12:05:19.544Z,20.30
2018-04-24T12:07:47.014Z,20.50
2018-04-24T12:10:15.274Z,20.50
2018-04-24T12:12:42.753Z,20.50
2018-04-24T12:15:11.044Z,20.30
2018-04-24T12:17:38.522Z,20.30
2018-04-24T12:20:06.017Z,20.60
2018-04-24T12:22:33.621Z,20.50
2018-04-24T12:25:01.117Z,20.60
2018-04-24T12:27:28.613Z,20.70
2018-04-24T12:29:56.867Z,20.90
2018-04-24T12:32:24.340Z,20.90
2018-04-24T12:34:52.589Z,21.00
2018-04-24T12:37:20.070Z,21.00
2018-04-24T12:39:48.323Z,21.30
2018-04-24T12:42:15.817Z,21.30
2018-04-24T12:44:44.053Z,21.50
2018-04-24T12:47:11.568Z,21.40
2018-04-24T12:49:39.065Z,21.60
2018-04-24T12:52:06.584Z,21.70
2018-04-24T12:54:34.088Z,21.70
2018-04-24T12:57:01.546Z,21.70
2018-04-24T12:59:29.027Z,21.80
2018-04-24T13:01:57.257Z,21.70
2018-04-24T13:04:24.739Z,21.70
2018-04-24T13:06:52.223Z,21.90
2018-04-24T13:09:19.826Z,22.00
2018-04-24T13:11:47.293Z,22.00
2018-04-24T13:14:15.095Z,22.10
2018-04-24T13:16:43.361Z,22.40
2018-04-24T13:19:10.881Z,22.30
2018-04-24T13:21:38.380Z,22.80
2018-04-24T13:24:05.878Z,23.10
2018-04-24T13:26:33.428Z,23.40
2018-04-24T13:29:01.148Z,23.40
2018-04-24T13:31:28.971Z,23.60
2018-04-24T13:33:56.570Z,23.70
2018-04-24T13:36:24.063Z,24.00
2018-04-24T13:38:52.333Z,23.70
2018-04-24T13:41:20.628Z,24.00
2018-04-24T13:43:48.164Z,24.00
2018-04-24T13:46:16.458Z,24.80
2018-04-24T13:48:43.949Z,24.80
2018-04-24T13:51:11.505Z,25.20
2018-04-24T13:53:38.991Z,25.40
2018-04-24T13:56:06.522Z,25.50
2018-04-24T13:58:34.027Z,26.00
2018-04-24T14:01:02.319Z,26.00
2018-04-24T14:03:30.784Z,26.10
2018-04-24T14:05:59.214Z,26.10
2018-04-24T14:08:26.964Z,26.10
2018-04-24T14:10:54.607Z,26.20
2018-04-24T14:13:22.232Z,26.40
2018-04-24T14:15:49.721Z,26.70
2018-04-24T14:18:17.196Z,27.20
2018-04-24T14:20:44.692Z,27.00
2018-04-24T14:23:12.153Z,27.60
2018-04-24T14:25:39.650Z,27.70
2018-04-24T14:28:07.891Z,27.70
2018-04-24T14:30:35.372Z,27.70
2018-04-24T14:33:03.614Z,27.80
2018-04-24T14:35:31.121Z,27.80
2018-04-24T14:37:58.583Z,28.30
2018-04-24T14:40:26.085Z,27.70
2018-04-24T14:42:53.553Z,28.40
2018-04-24T14:45:21.043Z,28.00
2018-04-24T14:47:49.273Z,28.10
2018-04-24T14:50:16.760Z,28.10
2018-04-24T14:52:44.993Z,27.20
2018-04-24T14:55:12.518Z,27.40
2018-04-24T14:57:39.997Z,27.20
2018-04-24T15:00:07.477Z,27.20
2018-04-24T15:02:34.959Z,26.90
2018-04-24T15:05:02.450Z,26.90
2018-04-24T15:07:29.995Z,26.90
2018-04-24T15:09:57.537Z,26.90
2018-04-24T15:12:24.996Z,27.10
2018-04-24T15:14:53.288Z,27.30
2018-04-24T15:17:21.532Z,27.70
2018-04-24T15:19:49.009Z,27.70
2018-04-24T15:22:16.488Z,27.70
2018-04-24T15:24:43.977Z,27.50
2018-04-24T15:27:11.446Z,27.50
2018-04-24T15:29:38.929Z,27.50
2018-04-24T15:32:06.420Z,27.10
2018-04-24T15:34:33.917Z,26.80
2018-04-24T15:37:01.379Z,26.50
2018-04-24T15:39:28.863Z,26.20
2018-04-24T15:41:57.107Z,26.40
2018-04-24T15:44:24.703Z,26.40
2018-04-24T15:46:52.953Z,26.20
2018-04-24T15:49:20.449Z,26.20
2018-04-24T15:51:47.907Z,26.30
2018-04-24T15:54:15.450Z,26.00
2018-04-24T15:56:43.743Z,25.50
2018-04-24T15:59:11.196Z,25.50
2018-04-24T16:01:39.454Z,25.30
2018-04-24T16:04:06.918Z,25.30
2018-04-24T16:06:35.225Z,25.10
2018-04-24T16:09:02.688Z,25.10
2018-04-24T16:11:30.180Z,24.50
2018-04-24T16:13:57.683Z,24.40
2018-04-24T16:16:25.169Z,24.20
2018-04-24T16:18:52.648Z,23.80
2018-04-24T16:21:20.237Z,23.80
2018-04-24T16:23:48.480Z,23.60
2018-04-24T16:26:15.996Z,23.60
2018-04-24T16:28:43.474Z,23.60
2018-04-24T16:31:10.978Z,23.40
2018-04-24T16:33:38.454Z,23.20
2018-04-24T16:36:06.734Z,23.40
2018-04-24T16:38:34.968Z,23.30
2018-04-24T16:41:02.540Z,23.30
2018-04-24T16:43:30.297Z,23.10
2018-04-24T16:48:31.512Z,23.10
2018-04-24T16:50:59.011Z,22.90
2018-04-24T16:53:26.499Z,22.80
2018-04-24T16:55:54.757Z,22.50
2018-04-24T16:58:23.001Z,22.50
2018-04-24T17:00:50.528Z,22.50
2018-04-24T17:03:18.068Z,22.50
2018-04-24T17:05:46.307Z,22.30
2018-04-24T17:08:14.332Z,22.30
2018-04-24T17:10:42.640Z,22.20
2018-04-24T17:13:10.137Z,22.10
2018-04-24T17:15:37.626Z,22.10
2018-04-24T17:18:05.891Z,21.90
2018-04-24T17:20:35.955Z,21.90
2018-04-24T17:23:03.536Z,21.90
2018-04-24T17:25:31.037Z,21.80
2018-04-24T17:27:59.280Z,21.80
2018-04-24T17:30:26.768Z,21.70
2018-04-24T17:32:55.019Z,21.60
2018-04-24T17:35:22.621Z,21.60
2018-04-24T17:37:50.011Z,21.50
2018-04-24T17:40:17.507Z,21.50
2018-04-24T17:42:45.044Z,21.30
2018-04-24T17:45:12.535Z,21.30
2018-04-24T17:47:41.051Z,21.30
2018-04-24T17:50:08.571Z,21.40
2018-04-24T17:52:36.890Z,21.30
2018-04-24T17:55:04.437Z,21.30
2018-04-24T17:57:31.898Z,21.30
2018-04-24T17:59:59.376Z,21.30
2018-04-24T18:02:27.015Z,21.20
2018-04-24T18:04:54.573Z,21.10
2018-04-24T18:07:22.054Z,21.00
2018-04-24T18:09:49.565Z,20.80
2018-04-24T18:12:17.839Z,20.60
2018-04-24T18:14:46.177Z,20.60
2018-04-24T18:17:13.683Z,20.60
2018-04-24T18:19:42.310Z,20.40
2018-04-24T18:22:09.986Z,20.40
2018-04-24T18:24:37.496Z,20.30
2018-04-24T18:27:05.006Z,20.30
2018-04-24T18:29:32.568Z,20.20
2018-04-24T18:32:00.177Z,20.20
2018-04-24T18:34:27.864Z,20.10
2018-04-24T18:36:55.387Z,20.20
2018-04-24T18:39:23.777Z,20.10
2018-04-24T18:41:51.532Z,20.00
2018-04-24T18:44:19.610Z,19.90
2018-04-24T18:46:51.768Z,19.90
2018-04-24T18:49:22.290Z,19.80
2018-04-24T18:51:50.642Z,19.70
2018-04-24T18:54:18.303Z,19.70
2018-04-24T18:56:47.338Z,19.60
2018-04-24T18:59:14.925Z,19.60
2018-04-24T19:01:43.144Z,19.50
2018-04-24T19:04:11.646Z,19.50
2018-04-24T19:06:39.245Z,19.50
2018-04-24T19:09:06.784Z,19.40
2018-04-24T19:11:34.264Z,19.40
2018-04-24T19:14:07.435Z,19.40
2018-04-24T19:16:34.927Z,19.40
2018-04-24T19:19:08.282Z,19.40
2018-04-24T19:21:35.806Z,19.30
2018-04-24T19:24:04.051Z,19.30
2018-04-24T19:26:31.650Z,19.40
2018-04-24T19:28:59.264Z,19.30
2018-04-24T19:31:32.588Z,19.30
2018-04-24T19:34:00.008Z,19.20
2018-04-24T19:36:28.324Z,19.10
2018-04-24T19:39:02.381Z,19.10
2018-04-24T19:44:26.001Z,19.10
2018-04-24T19:46:53.503Z,19.00
2018-04-24T20:02:47.125Z,18.60
2018-04-24T20:05:15.380Z,18.50
2018-04-24T20:07:42.944Z,18.50
2018-04-24T20:10:10.483Z,18.40
2018-04-24T20:12:38.033Z,18.40
2018-04-24T20:15:05.516Z,18.30
2018-04-24T20:17:33.026Z,18.30
2018-04-24T20:20:02.394Z,18.30
2018-04-24T20:22:31.226Z,18.30
2018-04-24T20:24:58.814Z,18.30
2018-04-24T20:27:26.498Z,18.20
2018-04-24T20:29:54.124Z,18.10
2018-04-24T20:32:21.691Z,17.90
2018-04-24T20:34:49.198Z,17.90
2018-04-24T20:37:17.473Z,17.90
2018-04-24T20:39:45.710Z,17.90
2018-04-24T20:42:13.188Z,17.90
2018-04-24T20:44:44.260Z,17.70
2018-04-24T20:47:11.768Z,17.80
2018-04-24T20:49:39.218Z,17.80
2018-04-24T20:52:06.739Z,18.20
2018-04-24T20:54:34.217Z,17.80
2018-04-24T20:57:02.346Z,17.80
2018-04-24T20:59:29.825Z,17.60
2018-04-24T21:01:58.419Z,17.70
2018-04-24T21:04:25.884Z,17.70
2018-04-24T21:06:53.424Z,17.60
2018-04-24T21:09:20.900Z,17.50
2018-04-24T21:11:48.401Z,17.50
2018-04-24T21:14:15.875Z,17.50
2018-04-24T21:16:44.120Z,17.40
2018-04-24T21:19:11.599Z,17.30
2018-04-24T21:21:39.125Z,17.40
2018-04-24T21:24:06.605Z,17.20
2018-04-24T21:26:35.587Z,17.10
2018-04-24T21:29:03.062Z,17.10
2018-04-24T21:31:30.538Z,17.00
2018-04-24T21:33:58.768Z,17.00
2018-04-24T21:36:26.266Z,16.90
2018-04-24T21:38:54.511Z,16.80
2018-04-24T21:41:22.033Z,16.80
2018-04-24T21:43:49.481Z,16.80
2018-04-24T21:46:16.983Z,16.80
2018-04-24T21:48:44.466Z,16.80
2018-04-24T21:51:12.715Z,16.60
2018-04-24T21:53:40.203Z,16.60
2018-04-24T21:56:08.448Z,16.50
2018-04-24T21:58:35.932Z,16.50
2018-04-24T22:01:04.186Z,16.50
2018-04-24T22:03:31.644Z,16.50
2018-04-24T22:05:59.110Z,16.40
2018-04-24T22:08:28.110Z,16.10
2018-04-24T22:10:56.517Z,16.00
2018-04-24T22:13:24.101Z,16.00
2018-04-24T22:15:52.252Z,15.80
2018-04-24T22:18:19.740Z,15.80
2018-04-24T22:20:47.211Z,15.80
2018-04-24T22:23:14.690Z,15.80
2018-04-24T22:25:42.261Z,15.70
2018-04-24T22:28:10.501Z,15.70
2018-04-24T22:30:37.998Z,15.70
2018-04-24T22:33:06.263Z,15.60
2018-04-24T22:35:34.526Z,15.50
2018-04-24T22:38:02.803Z,15.50
2018-04-24T22:40:31.047Z,15.50
2018-04-24T22:42:58.548Z,15.50
2018-04-24T22:45:26.796Z,15.60
2018-04-24T22:47:54.276Z,15.60
2018-04-24T22:50:21.839Z,15.80
2018-04-24T22:52:49.316Z,15.60
2018-04-24T22:55:17.543Z,15.70
2018-04-24T22:57:45.020Z,15.70
2018-04-24T23:00:15.921Z,15.70
2018-04-24T23:02:43.395Z,15.70
2018-04-24T23:05:10.875Z,15.70
2018-04-24T23:07:38.363Z,15.60
2018-04-24T23:10:05.373Z,15.60
2018-04-24T23:12:44.583Z,15.70
2018-04-24T23:15:23.713Z,15.60
2018-04-24T23:20:23.392Z,15.60
2018-04-24T23:22:50.901Z,15.50
2018-04-24T23:25:18.356Z,15.50
2018-04-24T23:27:46.794Z,15.50
2018-04-24T23:30:14.269Z,15.50
2018-04-24T23:32:41.759Z,15.40
2018-04-24T23:35:09.223Z,15.40
2018-04-24T23:37:36.705Z,15.40
2018-04-24T23:40:04.944Z,15.40
2018-04-24T23:42:32.423Z,15.40
2018-04-24T23:45:00.668Z,15.40
2018-04-24T23:47:28.149Z,15.40
2018-04-24T23:49:56.372Z,15.30
2018-04-24T23:52:23.851Z,16.00
2018-04-24T23:54:51.309Z,15.30
2018-04-24T23:57:18.817Z,15.30
2018-04-24T23:59:47.060Z,15.30
